Time;durP1;ratioP1;P1;durP2;ratioP2;P2;SDS_P1;SDS_P2;PMS_P1;PMS_P2;Temp;Humidity;BMP_temperature;BMP_pressure;BME280_temperature;BME280_humidity;BME280_pressure;Samples;Min_cycle;Max_cycle;Signal;HPM_P1;HPM_P2
2021/12/15 00:00:23;;;;;;;4.57;3.90;;;21.70;36.20;;;;;;5108548;27;48814;-27
2021/12/15 00:02:51;;;;;;;4.00;3.60;;;21.70;36.20;;;;;;5108615;27;46847;-27
2021/12/15 00:05:22;;;;;;;4.20;3.80;;;21.70;36.20;;;;;;5108539;27;47118;-28
2021/12/15 00:07:49;;;;;;;4.53;4.10;;;21.70;36.30;;;;;;5108669;27;46861;-27
2021/12/15 00:10:15;;;;;;;4.32;3.88;;;21.70;36.20;;;;;;5108126;27;49069;-27
2021/12/15 00:12:42;;;;;;;4.88;3.90;;;21.70;36.20;;;;;;5108367;27;46876;-26
2021/12/15 00:15:11;;;;;;;4.30;3.90;;;21.70;36.20;;;;;;5108018;27;47005;-27
2021/12/15 00:17:37;;;;;;;4.72;3.97;;;21.70;36.30;;;;;;5108563;27;46895;-26
2021/12/15 00:20:05;;;;;;;4.85;3.88;;;21.70;36.20;;;;;;5108226;27;48229;-26
2021/12/15 00:22:32;;;;;;;4.35;3.95;;;21.70;36.20;;;;;;5108015;27;46904;-27
2021/12/15 00:24:58;;;;;;;4.63;3.75;;;21.70;36.20;;;;;;5108401;27;46878;-27
2021/12/15 00:27:25;;;;;;;4.15;3.78;;;21.70;36.20;;;;;;5108348;27;47225;-26
2021/12/15 00:29:52;;;;;;;4.20;3.80;;;21.70;36.30;;;;;;5108118;27;46996;-26
2021/12/15 00:32:20;;;;;;;4.78;4.15;;;21.70;36.30;;;;;;5108063;27;46927;-26
2021/12/15 00:34:48;;;;;;;4.60;3.90;;;21.70;36.30;;;;;;5107733;27;46887;-26
2021/12/15 00:37:15;;;;;;;4.32;3.92;;;21.70;36.20;;;;;;5108025;27;47141;-26
2021/12/15 00:39:41;;;;;;;4.30;3.90;;;21.70;36.20;;;;;;5107858;27;47933;-26
2021/12/15 00:42:09;;;;;;;4.65;4.03;;;21.70;36.30;;;;;;5107834;27;46900;-27
2021/12/15 00:44:36;;;;;;;4.18;3.65;;;21.70;36.30;;;;;;5106723;27;46814;-26
2021/12/15 00:47:03;;;;;;;4.55;4.00;;;21.70;36.80;;;;;;5107664;27;46865;-27
2021/12/15 00:49:31;;;;;;;3.95;3.55;;;21.70;36.20;;;;;;5107661;27;48411;-27
2021/12/15 00:51:58;;;;;;;4.57;3.83;;;21.70;36.20;;;;;;5107264;27;46845;-26
2021/12/15 00:54:24;;;;;;;4.65;3.90;;;21.70;36.30;;;;;;5107459;27;46940;-27
2021/12/15 00:56:51;;;;;;;4.43;3.90;;;21.70;36.30;;;;;;5107564;27;46834;-26
2021/12/15 00:59:18;;;;;;;4.28;3.78;;;21.70;36.20;;;;;;5107211;27;46900;-26
2021/12/15 01:01:45;;;;;;;4.78;4.10;;;21.70;36.20;;;;;;5107410;27;47033;-27
2021/12/15 01:04:13;;;;;;;4.30;3.90;;;21.70;36.30;;;;;;5107270;27;46864;-26
2021/12/15 01:06:42;;;;;;;4.38;3.97;;;21.60;36.30;;;;;;5107504;27;46815;-27
2021/12/15 01:09:12;;;;;;;4.00;3.60;;;21.70;36.30;;;;;;5107118;27;47853;-27
2021/12/15 01:12:06;;;;;;;4.30;3.90;;;21.70;36.30;;;;;;5107088;27;46872;-26
2021/12/15 01:19:46;;;;;;;4.60;3.85;;;21.60;36.30;;;;;;5107229;27;46869;-26
2021/12/15 01:20:07;;;;;;;4.63;3.95;;;21.70;36.30;;;;;;5104173;27;46785;-27
2021/12/15 01:22:37;;;;;;;3.88;3.50;;;21.70;36.30;;;;;;5107300;27;47020;-26
2021/12/15 01:25:06;;;;;;;4.30;3.75;;;21.70;36.30;;;;;;5106896;27;46800;-26
2021/12/15 01:27:33;;;;;;;4.55;3.60;;;21.60;36.30;;;;;;5107118;27;46888;-27
2021/12/15 01:29:59;;;;;;;4.10;3.70;;;21.70;36.40;;;;;;5107018;27;48141;-27
2021/12/15 01:32:26;;;;;;;4.32;3.78;;;21.60;36.30;;;;;;5107098;27;47380;-27
2021/12/15 01:34:53;;;;;;;4.28;3.88;;;21.70;36.30;;;;;;5106862;27;46903;-27
2021/12/15 01:37:19;;;;;;;3.53;3.22;;;21.60;36.30;;;;;;5107138;27;46977;-26
2021/12/15 01:39:53;;;;;;;4.20;3.78;;;21.60;36.30;;;;;;5107011;27;48878;-26
2021/12/15 01:42:19;;;;;;;3.90;3.55;;;21.60;36.30;;;;;;5107005;27;46794;-27
2021/12/15 01:47:30;;;;;;;3.92;3.55;;;21.70;36.30;;;;;;5104237;27;46857;-27
2021/12/15 01:49:57;;;;;;;4.28;3.60;;;21.70;36.30;;;;;;5106353;27;47878;-27
2021/12/15 01:52:25;;;;;;;4.15;3.75;;;21.70;36.30;;;;;;5106503;27;47074;-19
2021/12/15 01:54:55;;;;;;;3.78;3.47;;;21.70;36.90;;;;;;5105950;27;46958;-17
2021/12/15 01:57:23;;;;;;;3.92;3.58;;;21.70;36.30;;;;;;5106908;27;46809;-18
2021/12/15 01:59:50;;;;;;;4.20;3.80;;;21.70;36.30;;;;;;5106377;27;46994;-18
2021/12/15 02:02:17;;;;;;;4.20;3.70;;;21.70;36.30;;;;;;5106665;27;46834;-19
2021/12/15 02:04:44;;;;;;;4.15;3.75;;;21.70;36.30;;;;;;5106357;27;46843;-17
2021/12/15 02:07:13;;;;;;;4.30;3.45;;;21.70;36.30;;;;;;5106707;27;47297;-17
2021/12/15 02:10:01;;;;;;;3.75;3.45;;;21.70;36.30;;;;;;5106477;27;47977;-26
2021/12/15 02:12:33;;;;;;;3.60;3.17;;;21.70;36.30;;;;;;5106379;27;46889;-26
2021/12/15 02:15:00;;;;;;;4.25;3.72;;;21.70;36.30;;;;;;5106453;27;46836;-27
2021/12/15 02:17:27;;;;;;;3.72;3.42;;;21.70;36.30;;;;;;5106258;27;47161;-27
2021/12/15 02:19:53;;;;;;;3.70;3.40;;;21.70;36.90;;;;;;5106283;27;47083;-26
2021/12/15 02:22:22;;;;;;;3.70;3.40;;;21.70;36.30;;;;;;5106264;27;47255;-26
2021/12/15 02:24:51;;;;;;;3.90;3.60;;;21.70;36.30;;;;;;5105963;27;46908;-27
2021/12/15 02:27:18;;;;;;;3.75;3.40;;;21.70;36.30;;;;;;5106563;27;47273;-26
2021/12/15 02:29:47;;;;;;;4.78;3.75;;;21.70;36.40;;;;;;5106165;27;47790;-27
2021/12/15 02:32:20;;;;;;;4.03;3.60;;;21.70;36.30;;;;;;5106212;27;46968;-27
2021/12/15 02:37:04;;;;;;;3.85;3.45;;;21.70;36.30;;;;;;5105934;27;46834;-27
2021/12/15 02:37:45;;;;;;;4.07;3.55;;;21.60;36.30;;;;;;5106245;27;47133;-27
2021/12/15 02:40:15;;;;;;;3.80;3.50;;;21.70;36.40;;;;;;5105787;27;49070;-27
2021/12/15 02:42:45;;;;;;;3.92;3.45;;;21.70;36.30;;;;;;5105891;27;46791;-26
2021/12/15 02:45:13;;;;;;;4.28;3.65;;;21.70;36.30;;;;;;5105916;27;46893;-27
2021/12/15 02:47:40;;;;;;;5.15;3.80;;;21.70;36.30;;;;;;5105894;27;46887;-26
2021/12/15 02:50:09;;;;;;;4.20;3.60;;;21.70;36.30;;;;;;5105881;27;47845;-26
2021/12/15 02:52:36;;;;;;;3.88;3.50;;;21.70;36.30;;;;;;5105966;27;47055;-26
2021/12/15 02:55:04;;;;;;;4.07;3.67;;;21.70;36.30;;;;;;5105674;27;46818;-26
2021/12/15 02:57:31;;;;;;;3.70;3.40;;;21.70;36.30;;;;;;5106226;27;46878;-26
2021/12/15 03:00:02;;;;;;;3.90;3.50;;;21.70;36.30;;;;;;5105697;27;48107;-26
2021/12/15 03:03:01;;;;;;;4.05;3.60;;;21.70;36.40;;;;;;5105950;27;47544;-27
2021/12/15 03:05:31;;;;;;;4.18;3.85;;;21.70;36.40;;;;;;5105188;27;46916;-27
2021/12/15 03:08:06;;;;;;;4.38;3.95;;;21.70;36.40;;;;;;5108184;27;47004;-26
2021/12/15 03:16:03;;;;;;;4.00;3.60;;;21.70;36.30;;;;;;5107791;27;46915;-26
2021/12/15 03:18:29;;;;;;;4.07;3.67;;;21.70;36.30;;;;;;5109344;27;47284;-27
2021/12/15 03:20:58;;;;;;;3.90;3.45;;;21.70;36.30;;;;;;5108640;27;47034;-27
2021/12/15 03:23:28;;;;;;;3.95;3.63;;;21.70;36.30;;;;;;5109034;27;47116;-27
2021/12/15 03:25:57;;;;;;;4.47;3.67;;;21.70;36.40;;;;;;5109045;27;46862;-27
2021/12/15 03:34:09;;;;;;;3.83;3.33;;;21.70;36.40;;;;;;5106127;27;46830;-26
2021/12/15 03:37:03;;;;;;;3.63;3.33;;;21.60;36.30;;;;;;5108788;27;46788;-27
2021/12/15 03:39:31;;;;;;;3.65;3.33;;;21.70;36.30;;;;;;5109230;27;46919;-27
2021/12/15 03:42:03;;;;;;;3.60;3.30;;;21.70;36.30;;;;;;5108312;27;48136;-27
2021/12/15 03:44:31;;;;;;;3.65;3.35;;;21.60;36.30;;;;;;5108914;27;46796;-26
2021/12/15 03:46:58;;;;;;;4.00;3.60;;;21.70;36.40;;;;;;5108723;27;47257;-26
2021/12/15 03:49:25;;;;;;;3.58;3.28;;;21.70;36.40;;;;;;5108665;27;47285;-26
2021/12/15 03:51:51;;;;;;;3.90;3.50;;;21.60;36.30;;;;;;5108637;27;48370;-27
2021/12/15 03:54:18;;;;;;;3.72;3.40;;;21.70;36.40;;;;;;5108657;27;46996;-26
2021/12/15 03:56:46;;;;;;;4.97;3.58;;;21.70;36.30;;;;;;5108559;27;46918;-27
2021/12/15 03:59:14;;;;;;;3.30;3.00;;;21.60;36.30;;;;;;5108548;27;47097;-27
2021/12/15 04:01:41;;;;;;;3.55;3.20;;;21.70;36.30;;;;;;5108264;27;47984;-27
2021/12/15 04:04:07;;;;;;;3.88;3.47;;;21.60;36.30;;;;;;5108188;27;46841;-26
2021/12/15 04:06:35;;;;;;;4.13;3.72;;;21.70;36.30;;;;;;5108425;27;46898;-27
2021/12/15 04:09:02;;;;;;;3.40;2.92;;;21.70;36.30;;;;;;5108770;27;46931;-27
2021/12/15 04:11:33;;;;;;;5.07;3.50;;;21.70;36.30;;;;;;5108159;27;47058;-27
2021/12/15 04:14:00;;;;;;;3.55;3.25;;;21.70;36.30;;;;;;5108149;27;47404;-26
2021/12/15 04:16:43;;;;;;;4.20;3.00;;;21.70;36.30;;;;;;5108416;27;46892;-27
2021/12/15 04:19:11;;;;;;;4.15;3.65;;;21.70;36.30;;;;;;5108615;27;46859;-26
2021/12/15 04:21:38;;;;;;;3.63;3.33;;;21.70;36.30;;;;;;5108071;27;48097;-27
2021/12/15 04:24:06;;;;;;;3.47;3.17;;;21.60;36.30;;;;;;5107867;27;46880;-27
2021/12/15 04:26:33;;;;;;;3.88;3.47;;;21.70;36.30;;;;;;5107887;27;46900;-26
2021/12/15 04:28:59;;;;;;;3.80;3.47;;;21.70;36.30;;;;;;5108418;27;46939;-27
2021/12/15 04:31:29;;;;;;;3.40;3.08;;;21.60;36.30;;;;;;5107507;27;47844;-27
2021/12/15 04:33:56;;;;;;;3.78;3.33;;;21.70;36.40;;;;;;5108362;27;47081;-27
2021/12/15 04:36:24;;;;;;;3.85;3.45;;;21.70;36.30;;;;;;5107974;27;46971;-26
2021/12/15 04:38:51;;;;;;;4.03;3.60;;;21.70;36.40;;;;;;5107727;27;46962;-26
2021/12/15 04:41:18;;;;;;;3.53;3.22;;;21.70;36.30;;;;;;5107649;27;48375;-27
2021/12/15 04:43:46;;;;;;;3.50;3.20;;;21.70;36.30;;;;;;5107545;27;47028;-27
2021/12/15 04:46:13;;;;;;;3.85;3.50;;;21.70;36.30;;;;;;5107496;27;46904;-26
2021/12/15 04:48:42;;;;;;;3.35;3.05;;;21.60;36.30;;;;;;5108030;27;47285;-27
2021/12/15 04:51:08;;;;;;;3.80;3.00;;;21.70;36.30;;;;;;5107718;27;49033;-26
2021/12/15 04:53:37;;;;;;;3.15;2.85;;;21.70;36.30;;;;;;5107706;27;46919;-26
2021/12/15 04:56:04;;;;;;;3.33;3.03;;;21.70;36.30;;;;;;5107008;27;46981;-27
2021/12/15 04:58:31;;;;;;;3.70;3.30;;;21.60;36.30;;;;;;5107774;27;47033;-26
2021/12/15 05:00:59;;;;;;;3.60;3.30;;;21.70;36.30;;;;;;5107451;27;49323;-27
2021/12/15 05:03:26;;;;;;;3.92;3.50;;;21.70;36.30;;;;;;5107462;27;47507;-26
2021/12/15 05:05:54;;;;;;;3.85;3.42;;;21.60;36.30;;;;;;5107145;27;46860;-27
2021/12/15 05:08:21;;;;;;;3.65;3.03;;;21.70;36.30;;;;;;5107442;27;47289;-26
2021/12/15 05:10:50;;;;;;;3.65;3.28;;;21.60;36.30;;;;;;5107545;27;47743;-26
2021/12/15 05:13:19;;;;;;;3.80;3.47;;;21.70;36.30;;;;;;5107412;27;47312;-27
2021/12/15 05:15:45;;;;;;;3.50;3.20;;;21.70;36.30;;;;;;5107031;27;46899;-27
2021/12/15 05:18:12;;;;;;;3.85;3.20;;;21.70;36.30;;;;;;5107204;27;46875;-27
2021/12/15 05:20:40;;;;;;;3.08;2.88;;;21.70;36.30;;;;;;5106748;27;46859;-27
2021/12/15 05:23:08;;;;;;;3.42;3.00;;;21.70;36.30;;;;;;5107339;27;46985;-27
2021/12/15 05:25:35;;;;;;;3.20;2.90;;;21.60;36.30;;;;;;5103800;27;46959;-27
2021/12/15 05:28:02;;;;;;;3.63;3.22;;;21.70;36.30;;;;;;5107032;27;46816;-27
2021/12/15 05:30:28;;;;;;;4.13;3.50;;;21.70;36.30;;;;;;5106066;27;48054;-27
2021/12/15 05:32:55;;;;;;;2.83;2.63;;;21.60;36.20;;;;;;5107112;27;46887;-27
2021/12/15 05:35:23;;;;;;;2.95;2.65;;;21.70;36.30;;;;;;5106977;27;46856;-26
2021/12/15 05:37:51;;;;;;;3.25;2.95;;;21.60;36.20;;;;;;5107067;27;46931;-27
2021/12/15 05:40:19;;;;;;;3.58;3.28;;;21.60;36.20;;;;;;5106741;27;48009;-27
2021/12/15 05:42:46;;;;;;;3.30;3.00;;;21.70;36.90;;;;;;5106626;27;46951;-27
2021/12/15 05:45:13;;;;;;;3.53;2.95;;;21.70;36.20;;;;;;5106779;27;46931;-26
2021/12/15 05:47:40;;;;;;;3.33;3.03;;;21.60;36.20;;;;;;5106935;27;46983;-27
2021/12/15 05:50:08;;;;;;;3.53;3.22;;;21.70;36.30;;;;;;5106461;27;47855;-27
2021/12/15 05:52:35;;;;;;;3.85;3.05;;;21.70;36.20;;;;;;5106773;27;46891;-27
2021/12/15 05:55:01;;;;;;;3.47;3.17;;;21.70;36.30;;;;;;5106629;27;46881;-26
2021/12/15 05:57:29;;;;;;;3.00;2.72;;;21.70;36.20;;;;;;5107000;27;47140;-26
2021/12/15 05:59:56;;;;;;;3.22;2.90;;;21.70;36.20;;;;;;5106252;27;49089;-26
2021/12/15 06:02:23;;;;;;;3.03;2.72;;;21.70;36.20;;;;;;5106526;27;46810;-26
2021/12/15 06:04:49;;;;;;;2.75;2.55;;;21.70;36.30;;;;;;5106335;27;46996;-27
2021/12/15 06:07:16;;;;;;;3.00;2.70;;;21.70;36.20;;;;;;5106541;27;46902;-27
2021/12/15 06:09:43;;;;;;;3.22;2.75;;;21.60;36.30;;;;;;5106113;27;49055;-26
2021/12/15 06:12:10;;;;;;;3.00;2.70;;;21.70;36.30;;;;;;5106318;27;46996;-26
2021/12/15 06:14:38;;;;;;;3.63;3.10;;;21.70;36.20;;;;;;5095224;27;46961;-27
2021/12/15 06:17:07;;;;;;;3.40;2.58;;;21.70;36.20;;;;;;5085134;28;47314;-26
2021/12/15 06:19:34;;;;;;;3.00;2.70;;;21.60;36.20;;;;;;5085593;28;46992;-27
2021/12/15 06:22:01;;;;;;;2.83;2.63;;;21.60;36.20;;;;;;5085498;28;47076;-26
2021/12/15 06:24:28;;;;;;;3.08;2.80;;;21.60;36.30;;;;;;5085988;28;46961;-26
2021/12/15 06:26:57;;;;;;;3.47;3.00;;;21.70;36.20;;;;;;5085743;28;46857;-27
2021/12/15 06:29:24;;;;;;;3.28;2.97;;;21.70;36.30;;;;;;5085362;28;47929;-26
2021/12/15 06:31:52;;;;;;;3.28;2.97;;;21.60;36.20;;;;;;5085296;28;46975;-26
2021/12/15 06:34:19;;;;;;;3.08;2.78;;;21.60;36.20;;;;;;5085550;28;46807;-26
2021/12/15 06:36:46;;;;;;;3.20;2.90;;;21.60;36.20;;;;;;5085753;27;47104;-26
2021/12/15 06:39:12;;;;;;;3.28;2.97;;;21.60;36.20;;;;;;5084787;28;48803;-27
2021/12/15 06:41:39;;;;;;;2.92;2.60;;;21.60;36.20;;;;;;5083981;28;46843;-27
2021/12/15 06:44:06;;;;;;;2.78;2.58;;;21.60;36.20;;;;;;5083682;28;47005;-26
2021/12/15 06:47:02;;;;;;;3.00;2.80;;;21.60;36.30;;;;;;5083872;28;46876;-27
2021/12/15 07:00:28;;;;;;;3.08;2.78;;;21.60;36.20;;;;;;5082683;28;47462;-27
2021/12/15 07:02:55;;;;;;;3.10;2.80;;;21.70;36.20;;;;;;5085239;28;46896;-26
2021/12/15 07:05:23;;;;;;;3.10;2.80;;;21.60;36.20;;;;;;5085498;28;46981;-27
2021/12/15 07:07:50;;;;;;;3.40;3.10;;;21.60;36.20;;;;;;5085276;28;46960;-26
2021/12/15 07:10:20;;;;;;;2.67;2.47;;;21.70;36.20;;;;;;5085109;28;48219;-26
2021/12/15 07:12:47;;;;;;;3.92;3.00;;;21.60;36.20;;;;;;5084988;28;46902;-26
2021/12/15 07:15:14;;;;;;;3.50;3.20;;;21.60;36.20;;;;;;5084961;28;46916;-27
2021/12/15 07:17:44;;;;;;;3.33;2.92;;;21.70;36.20;;;;;;5085365;28;46905;-27
2021/12/15 07:22:53;;;;;;;3.75;3.38;;;21.60;36.10;;;;;;5084686;27;46918;-27
2021/12/15 07:25:21;;;;;;;3.47;3.00;;;21.70;36.20;;;;;;5084944;28;46866;-27
2021/12/15 07:27:48;;;;;;;3.85;3.42;;;21.70;36.20;;;;;;5085082;28;46889;-26
2021/12/15 07:30:15;;;;;;;4.32;3.38;;;21.70;36.20;;;;;;5084772;27;48971;-27
2021/12/15 07:32:41;;;;;;;4.07;3.40;;;21.70;36.20;;;;;;5084630;28;46850;-26
2021/12/15 07:35:09;;;;;;;3.85;3.13;;;21.70;36.20;;;;;;5084825;28;46790;-26
2021/12/15 07:37:35;;;;;;;3.53;3.20;;;21.70;36.20;;;;;;5085267;27;47231;-26
2021/12/15 07:40:06;;;;;;;4.07;3.15;;;21.60;36.20;;;;;;5084391;28;48808;-26
2021/12/15 07:42:36;;;;;;;4.88;3.88;;;21.70;36.20;;;;;;5084539;28;46864;-26
2021/12/15 07:45:03;;;;;;;4.07;3.28;;;21.60;36.10;;;;;;5084477;28;46930;-26
2021/12/15 07:47:30;;;;;;;4.85;3.60;;;21.70;36.20;;;;;;5084915;28;46921;-26
2021/12/15 07:50:00;;;;;;;3.95;3.60;;;21.70;36.20;;;;;;5084496;28;48190;-27
2021/12/15 07:52:26;;;;;;;3.40;3.10;;;21.70;36.20;;;;;;5084578;28;47270;-27
2021/12/15 07:54:53;;;;;;;4.00;3.60;;;21.60;36.20;;;;;;5087688;28;46865;-26
2021/12/15 07:57:22;;;;;;;3.90;3.50;;;21.60;36.10;;;;;;5088698;28;47239;-27
2021/12/15 07:59:49;;;;;;;3.58;3.10;;;21.70;36.20;;;;;;5087573;28;48133;-26
2021/12/15 08:02:16;;;;;;;3.95;3.40;;;21.70;36.20;;;;;;5088019;28;46898;-26
2021/12/15 08:04:43;;;;;;;3.92;3.53;;;21.70;36.20;;;;;;5087584;28;46880;-26
2021/12/15 08:07:09;;;;;;;3.63;3.30;;;21.70;36.20;;;;;;5088036;28;47042;-26
2021/12/15 08:09:36;;;;;;;4.10;3.58;;;21.70;36.20;;;;;;5087191;28;48754;-26
2021/12/15 08:12:03;;;;;;;3.53;3.22;;;21.60;36.10;;;;;;5087918;28;47070;-26
2021/12/15 08:14:31;;;;;;;3.65;3.35;;;21.60;36.10;;;;;;5088327;28;46861;-26
2021/12/15 08:16:58;;;;;;;3.80;3.45;;;21.70;36.20;;;;;;5087559;28;47297;-27
2021/12/15 08:19:25;;;;;;;3.40;3.10;;;21.70;36.20;;;;;;5087602;28;47912;-26
2021/12/15 08:21:52;;;;;;;3.25;2.95;;;21.70;36.10;;;;;;5087742;28;47470;-26
2021/12/15 08:24:19;;;;;;;3.53;3.22;;;21.70;36.10;;;;;;5087849;27;46815;-27
2021/12/15 08:26:46;;;;;;;4.32;3.70;;;21.70;36.10;;;;;;5087617;28;46803;-26
2021/12/15 08:29:12;;;;;;;3.85;3.25;;;21.60;36.10;;;;;;5087373;28;47189;-26
2021/12/15 08:31:40;;;;;;;3.67;3.33;;;21.60;36.10;;;;;;5087466;28;47402;-26
2021/12/15 08:34:08;;;;;;;4.07;3.47;;;21.60;36.10;;;;;;5087241;28;47017;-26
2021/12/15 08:36:35;;;;;;;4.07;3.63;;;21.70;36.10;;;;;;5097567;27;47120;-26
2021/12/15 08:39:02;;;;;;;3.80;3.50;;;21.60;36.10;;;;;;5107741;27;49106;-27
2021/12/15 08:41:29;;;;;;;4.10;3.60;;;21.60;36.10;;;;;;5096240;27;47265;-26
2021/12/15 08:43:56;;;;;;;4.00;3.65;;;21.60;36.10;;;;;;5087050;27;46843;-26
2021/12/15 08:46:23;;;;;;;3.97;3.50;;;21.60;36.10;;;;;;5087589;27;47182;-27
2021/12/15 08:48:53;;;;;;;3.78;3.40;;;21.60;36.10;;;;;;5087381;27;47065;-27
2021/12/15 08:51:25;;;;;;;3.47;3.17;;;21.70;36.10;;;;;;5086836;27;47430;-26
2021/12/15 08:53:52;;;;;;;4.00;3.60;;;21.70;36.10;;;;;;5087610;27;46945;-26
2021/12/15 08:56:18;;;;;;;4.22;3.83;;;21.70;36.10;;;;;;5095682;27;47257;-27
2021/12/15 08:58:45;;;;;;;4.18;3.78;;;21.60;36.00;;;;;;5107126;27;47920;-26
2021/12/15 09:01:12;;;;;;;4.05;3.65;;;21.70;36.10;;;;;;5107687;27;48355;-27
2021/12/15 09:03:41;;;;;;;5.20;4.10;;;21.70;36.10;;;;;;5106993;27;46788;-26
2021/12/15 09:06:09;;;;;;;4.75;4.10;;;21.60;36.00;;;;;;5094114;27;46938;-27
2021/12/15 09:08:36;;;;;;;4.70;3.90;;;21.60;36.10;;;;;;5095792;27;46881;-26
2021/12/15 09:11:05;;;;;;;4.88;3.95;;;21.70;36.10;;;;;;5084965;28;46978;-26
2021/12/15 09:13:32;;;;;;;3.83;3.53;;;21.70;36.10;;;;;;5085782;28;46965;-26
2021/12/15 09:15:59;;;;;;;4.25;3.85;;;21.70;36.10;;;;;;5086979;28;47360;-27
2021/12/15 09:18:25;;;;;;;4.22;3.83;;;21.70;36.20;;;;;;5086832;28;48223;-27
2021/12/15 09:20:52;;;;;;;4.60;4.10;;;21.60;36.00;;;;;;5086671;28;46999;-27
2021/12/15 09:23:20;;;;;;;4.75;3.95;;;21.70;36.10;;;;;;5087048;28;46916;-26
2021/12/15 09:25:47;;;;;;;4.15;3.67;;;21.70;36.10;;;;;;5086664;28;47210;-26
2021/12/15 09:28:14;;;;;;;5.32;4.13;;;21.60;36.10;;;;;;5086619;28;48957;-26
2021/12/15 09:30:44;;;;;;;4.60;4.07;;;21.70;36.10;;;;;;5086516;28;47632;-27
2021/12/15 09:33:11;;;;;;;6.13;4.55;;;21.60;36.10;;;;;;5086489;28;46936;-27
2021/12/15 09:35:37;;;;;;;4.70;4.15;;;21.70;36.10;;;;;;5086801;28;46896;-27
2021/12/15 09:38:14;;;;;;;4.57;4.13;;;21.70;36.10;;;;;;5085907;28;47996;-26
2021/12/15 09:40:42;;;;;;;4.22;3.83;;;21.70;36.10;;;;;;5086241;28;47172;-26
2021/12/15 09:43:09;;;;;;;4.20;3.80;;;21.70;36.10;;;;;;5086506;28;46897;-26
2021/12/15 09:45:42;;;;;;;4.53;4.13;;;21.70;36.10;;;;;;5086222;28;46942;-26
2021/12/15 09:57:01;;;;;;;4.20;3.80;;;21.70;36.10;;;;;;5085050;28;47028;-27
2021/12/15 10:02:25;;;;;;;4.43;3.90;;;21.70;36.10;;;;;;5083447;28;46925;-26
2021/12/15 10:05:02;;;;;;;4.60;3.70;;;21.70;36.20;;;;;;5086173;27;46942;-26
2021/12/15 10:18:34;;;;;;;4.32;3.92;;;21.70;36.10;;;;;;5083309;28;46870;-27
2021/12/15 10:21:00;;;;;;;4.32;3.70;;;21.70;36.10;;;;;;5085457;28;49073;-26
2021/12/15 10:23:35;;;;;;;4.65;3.80;;;21.70;36.10;;;;;;5085775;28;47093;-26
2021/12/15 10:26:01;;;;;;;3.70;3.33;;;21.70;36.10;;;;;;5085455;28;46772;-26
2021/12/15 10:28:30;;;;;;;4.72;3.45;;;21.70;36.20;;;;;;5085827;27;47222;-25
2021/12/15 10:30:59;;;;;;;4.05;3.42;;;21.80;36.60;;;;;;5089335;27;47866;-25
2021/12/15 10:33:27;;;;;;;5.22;3.53;;;21.70;36.30;;;;;;5101320;27;46853;-24
2021/12/15 10:35:57;;;;;;;3.92;3.53;;;21.80;36.30;;;;;;5085251;28;46926;-25
2021/12/15 10:38:26;;;;;;;3.72;3.42;;;21.80;36.30;;;;;;5084635;28;46864;-25
2021/12/15 10:40:56;;;;;;;5.60;3.83;;;21.80;36.30;;;;;;5084822;28;48806;-25
2021/12/15 10:43:24;;;;;;;3.97;3.53;;;21.80;36.20;;;;;;5085248;27;47141;-25
2021/12/15 10:45:54;;;;;;;3.63;3.33;;;21.80;36.30;;;;;;5085915;27;46822;-25
2021/12/15 10:48:34;;;;;;;4.78;3.75;;;21.80;36.30;;;;;;5106054;27;46986;-24
2021/12/15 10:51:01;;;;;;;3.70;3.28;;;21.80;36.30;;;;;;5084499;28;48133;-24
2021/12/15 10:53:33;;;;;;;4.97;3.30;;;21.80;36.30;;;;;;5084355;28;47461;-25
2021/12/15 10:55:59;;;;;;;5.47;3.70;;;21.80;36.30;;;;;;5083392;28;46868;-25
2021/12/15 10:58:34;;;;;;;3.50;3.20;;;21.90;36.30;;;;;;5083312;27;46888;-24
2021/12/15 11:01:05;;;;;;;3.90;3.47;;;21.80;36.30;;;;;;5082648;28;47061;-24
2021/12/15 11:03:33;;;;;;;5.85;3.38;;;21.80;36.40;;;;;;5084337;27;46947;-24
2021/12/15 11:06:00;;;;;;;3.47;3.17;;;21.80;36.40;;;;;;5088760;27;47014;-23
2021/12/15 11:08:26;;;;;;;4.85;3.20;;;21.90;36.30;;;;;;5098982;27;46928;-25
2021/12/15 11:10:54;;;;;;;5.30;3.47;;;21.90;36.40;;;;;;5104865;27;47033;-24
2021/12/15 11:13:23;;;;;;;4.20;3.35;;;21.90;36.40;;;;;;5097637;27;46983;-23
2021/12/15 11:15:50;;;;;;;4.60;3.40;;;21.90;36.40;;;;;;5083917;27;47269;-24
2021/12/15 11:18:20;;;;;;;3.80;3.08;;;21.90;36.40;;;;;;5091326;27;46875;-23
2021/12/15 11:20:48;;;;;;;4.75;3.10;;;22.00;36.40;;;;;;5098594;27;47296;-24
2021/12/15 11:23:14;;;;;;;4.10;3.05;;;21.90;36.40;;;;;;5098398;27;46823;-24
2021/12/15 11:25:44;;;;;;;4.32;3.13;;;21.90;36.50;;;;;;5083025;27;46923;-24
2021/12/15 11:28:19;;;;;;;4.22;2.80;;;21.90;36.50;;;;;;5090885;27;48164;-24
2021/12/15 11:30:48;;;;;;;3.60;3.30;;;21.90;36.50;;;;;;5091570;27;48246;-23
2021/12/15 11:33:16;;;;;;;3.45;3.15;;;21.90;36.40;;;;;;5094138;27;46924;-24
2021/12/15 11:35:46;;;;;;;3.60;2.88;;;22.00;36.50;;;;;;5094321;27;46935;-24
2021/12/15 11:38:15;;;;;;;3.53;3.03;;;21.90;36.50;;;;;;5087904;27;46976;-24
2021/12/15 11:40:45;;;;;;;4.50;2.85;;;22.00;36.50;;;;;;5087264;27;47930;-24
2021/12/15 11:43:30;;;;;;;4.70;3.00;;;22.00;36.50;;;;;;5087075;28;46890;-23
2021/12/15 11:45:57;;;;;;;3.00;2.78;;;22.00;36.50;;;;;;5098449;27;46920;-23
2021/12/15 11:48:25;;;;;;;3.50;3.08;;;22.00;36.50;;;;;;5101340;27;47056;-23
2021/12/15 11:50:54;;;;;;;3.63;2.88;;;22.00;36.50;;;;;;5085353;27;47119;-23
2021/12/15 11:53:24;;;;;;;4.63;2.65;;;22.00;36.50;;;;;;5094683;27;46962;-23
2021/12/15 11:55:51;;;;;;;3.90;3.10;;;22.00;36.50;;;;;;5104775;27;46972;-23
2021/12/15 11:58:30;;;;;;;4.18;2.97;;;22.00;36.50;;;;;;5089350;27;46974;-24
2021/12/15 12:00:57;;;;;;;3.72;3.20;;;22.00;36.40;;;;;;5086655;27;48160;-23
2021/12/15 12:03:23;;;;;;;5.80;3.13;;;22.00;36.60;;;;;;5094931;27;46814;-23
2021/12/15 12:05:50;;;;;;;4.45;3.22;;;22.00;36.60;;;;;;5093307;27;46885;-24
2021/12/15 12:08:19;;;;;;;3.80;3.40;;;22.00;36.40;;;;;;5093299;27;46877;-24
2021/12/15 12:10:49;;;;;;;7.68;3.35;;;22.00;36.40;;;;;;5108116;27;47835;-24
2021/12/15 12:13:21;;;;;;;5.45;3.28;;;22.00;36.60;;;;;;5096974;27;47020;-24
2021/12/15 12:15:50;;;;;;;3.72;3.22;;;22.00;36.60;;;;;;5103896;27;47007;-28
2021/12/15 12:18:18;;;;;;;5.75;3.25;;;22.00;36.60;;;;;;5102052;27;47293;-24
2021/12/15 12:20:46;;;;;;;6.28;3.35;;;22.00;36.60;;;;;;5095458;27;49422;-24
2021/12/15 12:23:13;;;;;;;3.83;3.10;;;22.00;36.50;;;;;;5092853;27;46992;-24
2021/12/15 12:25:43;;;;;;;5.65;3.50;;;22.10;36.70;;;;;;5086858;28;47136;-24
2021/12/15 12:28:12;;;;;;;5.07;3.25;;;22.10;36.80;;;;;;5093046;27;47297;-23
2021/12/15 12:30:40;;;;;;;5.85;3.50;;;22.00;36.60;;;;;;5087284;27;47944;-23
2021/12/15 12:33:09;;;;;;;4.03;3.53;;;22.10;36.60;;;;;;5099833;27;47488;-24
2021/12/15 12:35:37;;;;;;;5.10;3.25;;;22.10;36.70;;;;;;5104710;27;46957;-25
2021/12/15 12:38:07;;;;;;;5.30;3.67;;;22.10;36.70;;;;;;5104483;27;46903;-23
2021/12/15 12:40:36;;;;;;;5.20;3.67;;;22.10;36.70;;;;;;5085662;27;47072;-23
2021/12/15 12:43:21;;;;;;;6.82;4.00;;;22.10;37.30;;;;;;5085978;27;46953;-23
2021/12/15 12:45:54;;;;;;;5.32;3.75;;;22.10;36.70;;;;;;5088074;27;46830;-23
2021/12/15 12:48:42;;;;;;;5.60;3.10;;;22.10;36.70;;;;;;5087187;27;46822;-23
2021/12/15 12:59:44;;;;;;;3.67;3.20;;;22.50;36.20;;;;;;5084579;28;46976;-26
2021/12/15 13:02:41;;;;;;;5.03;3.47;;;22.60;36.00;;;;;;5086817;28;46846;-26
2021/12/15 13:05:25;;;;;;;3.75;3.17;;;22.70;35.80;;;;;;5086678;28;46842;-26
2021/12/15 13:07:54;;;;;;;4.10;2.90;;;22.90;35.60;;;;;;5087251;28;46849;-26
2021/12/15 13:10:21;;;;;;;4.22;3.40;;;23.00;35.60;;;;;;5086780;28;46948;-26
2021/12/15 13:12:48;;;;;;;5.78;3.33;;;23.00;35.40;;;;;;5086686;27;48658;-26
2021/12/15 13:15:18;;;;;;;3.20;2.90;;;23.10;35.40;;;;;;5086429;28;47373;-26
2021/12/15 13:17:54;;;;;;;3.60;2.67;;;23.20;35.30;;;;;;5086922;28;46989;-26
2021/12/15 13:20:25;;;;;;;5.65;3.13;;;23.20;35.20;;;;;;5086773;28;47082;-26
2021/12/15 13:23:06;;;;;;;7.95;2.75;;;23.20;36.30;;;;;;5086827;28;47849;-26
2021/12/15 13:28:44;;;;;;;7.55;3.92;;;23.30;36.80;;;;;;5083909;28;47008;-27
2021/12/15 13:31:15;;;;;;;8.85;3.22;;;23.40;37.10;;;;;;5086411;28;47155;-26
2021/12/15 13:33:45;;;;;;;5.93;3.08;;;23.40;37.70;;;;;;5086375;27;48017;-28
2021/12/15 13:36:14;;;;;;;5.13;3.28;;;23.50;37.30;;;;;;5086746;28;47529;-27
2021/12/15 13:38:43;;;;;;;3.30;2.75;;;23.40;36.00;;;;;;5086535;28;46822;-26
2021/12/15 13:41:38;;;;;;;4.53;3.30;;;23.30;35.20;;;;;;5086633;28;46885;-28
2021/12/15 13:44:18;;;;;;;4.53;3.30;;;23.20;35.40;;;;;;5086063;28;48862;-28
2021/12/15 13:46:49;;;;;;;3.85;2.97;;;23.10;35.40;;;;;;5085956;28;47284;-18
2021/12/15 13:49:24;;;;;;;12.77;3.70;;;23.00;35.40;;;;;;5086452;28;47129;-18
2021/12/15 13:52:27;;;;;;;3.70;3.22;;;23.00;35.60;;;;;;5085810;27;47315;-18
2021/12/15 13:55:17;;;;;;;5.90;5.40;;;23.00;36.00;;;;;;5086090;28;48082;-17
2021/12/15 13:57:56;;;;;;;4.90;4.40;;;23.00;36.00;;;;;;5086268;28;46897;-17
2021/12/15 14:00:26;;;;;;;5.57;4.38;;;23.00;35.80;;;;;;5086074;28;46807;-18
2021/12/15 14:03:00;;;;;;;5.22;4.70;;;22.90;36.00;;;;;;5086610;28;46905;-18